Richards, Texas
Current Conditions -  °F | °C
As of 9:35 PM on Friday 19 Dec 2014 (Local Time) from KUTS Reporting Station
Haze Haze  
Wind Chill: 50°   Ceiling: 300
Heat Index: 50°   Visibility: 4mi
Dew Point: 49°   Wind: 7mph
Humidity: 96%   Direction: 10°N
Pressure: 30.15"   Gusts: NA
Location:  30.54°N, 95.84°W
Report Text: KUTS 200335Z AUTO 01006KT 4SM BR OVC003 10/09 A3015 RMK AO2 CIG 003V007 T01000094
Loading
Personal Weather Stations






























Interactive Weather Map New forecast layout! Learn more

10-Day Weather Forecast

Advertisements
Track Severe Weather on mobile